sensor_id;sensor_type;location;lat;lon;timestamp;P1;durP1;ratioP1;P2;durP2;ratioP2
8407;SDS011;4241;48.452;9.216;2023-04-16T00:01:05;418.93;;;120.73;;
8407;SDS011;4241;48.452;9.216;2023-04-16T00:03:32;416.87;;;118.67;;
8407;SDS011;4241;48.452;9.216;2023-04-16T00:05:58;415.33;;;117.47;;
8407;SDS011;4241;48.452;9.216;2023-04-16T00:08:25;419.40;;;119.97;;
8407;SDS011;4241;48.452;9.216;2023-04-16T00:10:56;420.27;;;121.40;;
8407;SDS011;4241;48.452;9.216;2023-04-16T00:13:23;419.20;;;120.77;;
8407;SDS011;4241;48.452;9.216;2023-04-16T00:15:51;419.30;;;120.53;;
8407;SDS011;4241;48.452;9.216;2023-04-16T00:18:18;419.33;;;120.13;;
8407;SDS011;4241;48.452;9.216;2023-04-16T00:20:46;418.37;;;120.20;;
8407;SDS011;4241;48.452;9.216;2023-04-16T00:23:13;420.23;;;121.10;;
8407;SDS011;4241;48.452;9.216;2023-04-16T00:25:39;419.77;;;120.57;;
8407;SDS011;4241;48.452;9.216;2023-04-16T00:28:08;417.67;;;119.07;;
8407;SDS011;4241;48.452;9.216;2023-04-16T00:30:34;419.27;;;120.20;;
8407;SDS011;4241;48.452;9.216;2023-04-16T00:33:01;418.17;;;119.97;;
8407;SDS011;4241;48.452;9.216;2023-04-16T00:35:28;423.93;;;125.87;;
8407;SDS011;4241;48.452;9.216;2023-04-16T00:37:55;415.63;;;120.87;;
8407;SDS011;4241;48.452;9.216;2023-04-16T00:40:22;417.07;;;118.40;;
8407;SDS011;4241;48.452;9.216;2023-04-16T00:42:52;419.47;;;120.47;;
8407;SDS011;4241;48.452;9.216;2023-04-16T00:45:20;417.83;;;119.53;;
8407;SDS011;4241;48.452;9.216;2023-04-16T00:47:46;419.73;;;120.70;;
8407;SDS011;4241;48.452;9.216;2023-04-16T00:50:14;417.90;;;118.80;;
8407;SDS011;4241;48.452;9.216;2023-04-16T00:52:41;418.40;;;120.57;;
8407;SDS011;4241;48.452;9.216;2023-04-16T00:55:09;416.97;;;118.60;;
8407;SDS011;4241;48.452;9.216;2023-04-16T00:57:37;416.63;;;118.90;;
8407;SDS011;4241;48.452;9.216;2023-04-16T01:00:05;417.97;;;119.57;;
8407;SDS011;4241;48.452;9.216;2023-04-16T01:02:34;417.93;;;119.80;;
8407;SDS011;4241;48.452;9.216;2023-04-16T01:05:01;418.73;;;119.50;;
8407;SDS011;4241;48.452;9.216;2023-04-16T01:07:29;416.77;;;118.63;;
8407;SDS011;4241;48.452;9.216;2023-04-16T01:09:56;418.70;;;120.33;;
8407;SDS011;4241;48.452;9.216;2023-04-16T01:12:23;417.47;;;120.87;;
8407;SDS011;4241;48.452;9.216;2023-04-16T01:14:50;419.33;;;120.33;;
8407;SDS011;4241;48.452;9.216;2023-04-16T01:17:17;418.77;;;119.93;;
8407;SDS011;4241;48.452;9.216;2023-04-16T01:19:45;417.27;;;119.13;;
8407;SDS011;4241;48.452;9.216;2023-04-16T01:22:13;418.07;;;120.17;;
8407;SDS011;4241;48.452;9.216;2023-04-16T01:24:40;417.03;;;119.40;;
8407;SDS011;4241;48.452;9.216;2023-04-16T01:27:07;417.40;;;119.87;;
8407;SDS011;4241;48.452;9.216;2023-04-16T01:29:33;418.67;;;120.00;;
8407;SDS011;4241;48.452;9.216;2023-04-16T01:32:00;418.07;;;120.80;;
8407;SDS011;4241;48.452;9.216;2023-04-16T01:34:27;417.80;;;120.10;;
8407;SDS011;4241;48.452;9.216;2023-04-16T01:36:54;417.13;;;120.73;;
8407;SDS011;4241;48.452;9.216;2023-04-16T01:39:22;416.73;;;120.17;;
8407;SDS011;4241;48.452;9.216;2023-04-16T01:41:49;418.93;;;121.53;;
8407;SDS011;4241;48.452;9.216;2023-04-16T01:44:16;418.33;;;121.57;;
8407;SDS011;4241;48.452;9.216;2023-04-16T01:46:43;415.93;;;118.90;;
8407;SDS011;4241;48.452;9.216;2023-04-16T01:49:10;414.27;;;118.13;;
8407;SDS011;4241;48.452;9.216;2023-04-16T01:51:37;417.33;;;120.93;;
8407;SDS011;4241;48.452;9.216;2023-04-16T01:54:03;416.97;;;120.87;;
8407;SDS011;4241;48.452;9.216;2023-04-16T01:56:32;414.30;;;118.80;;
8407;SDS011;4241;48.452;9.216;2023-04-16T01:58:59;417.63;;;120.90;;
8407;SDS011;4241;48.452;9.216;2023-04-16T02:01:26;415.63;;;119.17;;
8407;SDS011;4241;48.452;9.216;2023-04-16T02:03:53;418.47;;;119.73;;
8407;SDS011;4241;48.452;9.216;2023-04-16T02:06:19;416.00;;;120.00;;
8407;SDS011;4241;48.452;9.216;2023-04-16T02:08:46;418.03;;;121.07;;
8407;SDS011;4241;48.452;9.216;2023-04-16T02:11:13;416.77;;;119.23;;
8407;SDS011;4241;48.452;9.216;2023-04-16T02:13:41;417.73;;;122.03;;
8407;SDS011;4241;48.452;9.216;2023-04-16T02:16:08;417.07;;;119.70;;
8407;SDS011;4241;48.452;9.216;2023-04-16T02:18:35;416.33;;;120.03;;
8407;SDS011;4241;48.452;9.216;2023-04-16T02:21:01;416.87;;;120.03;;
8407;SDS011;4241;48.452;9.216;2023-04-16T02:23:30;419.50;;;124.00;;
8407;SDS011;4241;48.452;9.216;2023-04-16T02:25:57;417.80;;;121.20;;
8407;SDS011;4241;48.452;9.216;2023-04-16T02:28:25;414.67;;;118.73;;
8407;SDS011;4241;48.452;9.216;2023-04-16T02:30:53;416.40;;;120.23;;
8407;SDS011;4241;48.452;9.216;2023-04-16T02:33:19;416.27;;;120.73;;
8407;SDS011;4241;48.452;9.216;2023-04-16T02:35:50;418.43;;;121.70;;
8407;SDS011;4241;48.452;9.216;2023-04-16T02:38:17;416.60;;;120.77;;
8407;SDS011;4241;48.452;9.216;2023-04-16T02:40:43;414.77;;;119.07;;
8407;SDS011;4241;48.452;9.216;2023-04-16T02:43:10;414.00;;;118.13;;
8407;SDS011;4241;48.452;9.216;2023-04-16T02:45:37;420.83;;;123.87;;
8407;SDS011;4241;48.452;9.216;2023-04-16T02:48:05;415.33;;;118.63;;
8407;SDS011;4241;48.452;9.216;2023-04-16T02:50:33;417.87;;;120.37;;
8407;SDS011;4241;48.452;9.216;2023-04-16T02:53:00;416.33;;;118.90;;
8407;SDS011;4241;48.452;9.216;2023-04-16T02:55:28;423.23;;;125.97;;
8407;SDS011;4241;48.452;9.216;2023-04-16T02:57:54;417.60;;;120.73;;
8407;SDS011;4241;48.452;9.216;2023-04-16T03:00:21;417.37;;;120.27;;
8407;SDS011;4241;48.452;9.216;2023-04-16T03:02:48;415.37;;;119.17;;
8407;SDS011;4241;48.452;9.216;2023-04-16T03:05:16;417.40;;;121.43;;
8407;SDS011;4241;48.452;9.216;2023-04-16T03:07:43;416.67;;;120.43;;
8407;SDS011;4241;48.452;9.216;2023-04-16T03:10:10;417.57;;;120.07;;
8407;SDS011;4241;48.452;9.216;2023-04-16T03:12:37;414.87;;;118.97;;
8407;SDS011;4241;48.452;9.216;2023-04-16T03:15:05;418.57;;;120.47;;
8407;SDS011;4241;48.452;9.216;2023-04-16T03:17:32;418.87;;;122.17;;
8407;SDS011;4241;48.452;9.216;2023-04-16T03:19:59;417.27;;;120.17;;
8407;SDS011;4241;48.452;9.216;2023-04-16T03:22:27;417.57;;;120.20;;
8407;SDS011;4241;48.452;9.216;2023-04-16T03:24:54;417.70;;;119.90;;
8407;SDS011;4241;48.452;9.216;2023-04-16T03:27:21;416.03;;;119.50;;
8407;SDS011;4241;48.452;9.216;2023-04-16T03:29:48;418.87;;;121.73;;
8407;SDS011;4241;48.452;9.216;2023-04-16T03:32:15;417.10;;;120.50;;
8407;SDS011;4241;48.452;9.216;2023-04-16T03:34:42;415.47;;;119.00;;
8407;SDS011;4241;48.452;9.216;2023-04-16T03:37:08;415.97;;;119.27;;
8407;SDS011;4241;48.452;9.216;2023-04-16T03:39:37;413.70;;;116.87;;
8407;SDS011;4241;48.452;9.216;2023-04-16T03:42:04;416.33;;;118.93;;
8407;SDS011;4241;48.452;9.216;2023-04-16T03:44:31;416.43;;;119.93;;
8407;SDS011;4241;48.452;9.216;2023-04-16T03:46:57;416.27;;;119.90;;
8407;SDS011;4241;48.452;9.216;2023-04-16T03:49:24;417.27;;;119.07;;
8407;SDS011;4241;48.452;9.216;2023-04-16T03:51:51;419.20;;;121.87;;
8407;SDS011;4241;48.452;9.216;2023-04-16T03:54:18;417.90;;;119.93;;
8407;SDS011;4241;48.452;9.216;2023-04-16T03:56:46;418.27;;;120.00;;
8407;SDS011;4241;48.452;9.216;2023-04-16T03:59:13;418.37;;;119.33;;
8407;SDS011;4241;48.452;9.216;2023-04-16T04:01:40;420.77;;;121.13;;
8407;SDS011;4241;48.452;9.216;2023-04-16T04:04:07;418.43;;;120.23;;
8407;SDS011;4241;48.452;9.216;2023-04-16T04:06:33;418.33;;;119.40;;
8407;SDS011;4241;48.452;9.216;2023-04-16T04:09:00;417.50;;;119.40;;
8407;SDS011;4241;48.452;9.216;2023-04-16T04:11:27;419.80;;;121.27;;
8407;SDS011;4241;48.452;9.216;2023-04-16T04:13:56;417.73;;;119.20;;
8407;SDS011;4241;48.452;9.216;2023-04-16T04:16:22;416.60;;;119.13;;
8407;SDS011;4241;48.452;9.216;2023-04-16T04:18:49;416.20;;;119.17;;
8407;SDS011;4241;48.452;9.216;2023-04-16T04:21:17;417.87;;;120.33;;
8407;SDS011;4241;48.452;9.216;2023-04-16T04:23:43;421.20;;;122.47;;
8407;SDS011;4241;48.452;9.216;2023-04-16T04:26:10;418.00;;;119.73;;
8407;SDS011;4241;48.452;9.216;2023-04-16T04:28:37;415.90;;;118.63;;
8407;SDS011;4241;48.452;9.216;2023-04-16T04:31:05;418.83;;;120.83;;
8407;SDS011;4241;48.452;9.216;2023-04-16T04:33:32;417.77;;;119.83;;
8407;SDS011;4241;48.452;9.216;2023-04-16T04:35:59;415.47;;;119.50;;
8407;SDS011;4241;48.452;9.216;2023-04-16T04:38:25;417.73;;;120.77;;
8407;SDS011;4241;48.452;9.216;2023-04-16T04:40:52;417.07;;;120.50;;
8407;SDS011;4241;48.452;9.216;2023-04-16T04:43:19;414.73;;;118.90;;
8407;SDS011;4241;48.452;9.216;2023-04-16T04:45:46;417.43;;;120.37;;
8407;SDS011;4241;48.452;9.216;2023-04-16T04:48:15;415.57;;;119.90;;
8407;SDS011;4241;48.452;9.216;2023-04-16T04:50:43;416.67;;;120.77;;
8407;SDS011;4241;48.452;9.216;2023-04-16T04:53:10;415.13;;;119.27;;
8407;SDS011;4241;48.452;9.216;2023-04-16T04:55:38;419.00;;;122.13;;
8407;SDS011;4241;48.452;9.216;2023-04-16T04:58:06;413.73;;;118.97;;
8407;SDS011;4241;48.452;9.216;2023-04-16T05:00:33;413.33;;;118.77;;
8407;SDS011;4241;48.452;9.216;2023-04-16T05:03:00;418.77;;;122.13;;
8407;SDS011;4241;48.452;9.216;2023-04-16T05:05:30;423.70;;;126.47;;
8407;SDS011;4241;48.452;9.216;2023-04-16T05:07:56;414.50;;;118.90;;
8407;SDS011;4241;48.452;9.216;2023-04-16T05:10:23;417.43;;;120.73;;
8407;SDS011;4241;48.452;9.216;2023-04-16T05:12:50;415.53;;;117.60;;
8407;SDS011;4241;48.452;9.216;2023-04-16T05:15:17;417.70;;;121.60;;
8407;SDS011;4241;48.452;9.216;2023-04-16T05:17:44;417.97;;;121.20;;
8407;SDS011;4241;48.452;9.216;2023-04-16T05:20:10;416.40;;;118.80;;
8407;SDS011;4241;48.452;9.216;2023-04-16T05:22:39;416.40;;;118.80;;
8407;SDS011;4241;48.452;9.216;2023-04-16T05:25:06;415.50;;;118.57;;
8407;SDS011;4241;48.452;9.216;2023-04-16T05:27:33;416.87;;;121.17;;
8407;SDS011;4241;48.452;9.216;2023-04-16T05:30:00;415.40;;;119.90;;
8407;SDS011;4241;48.452;9.216;2023-04-16T05:32:27;413.67;;;117.30;;
8407;SDS011;4241;48.452;9.216;2023-04-16T05:34:53;418.27;;;120.67;;
8407;SDS011;4241;48.452;9.216;2023-04-16T05:37:20;420.13;;;121.60;;
8407;SDS011;4241;48.452;9.216;2023-04-16T05:39:48;413.73;;;117.23;;
8407;SDS011;4241;48.452;9.216;2023-04-16T05:42:15;411.67;;;116.60;;
8407;SDS011;4241;48.452;9.216;2023-04-16T05:44:42;418.30;;;121.00;;
8407;SDS011;4241;48.452;9.216;2023-04-16T05:47:09;418.07;;;120.47;;
8407;SDS011;4241;48.452;9.216;2023-04-16T05:49:35;411.97;;;117.43;;
8407;SDS011;4241;48.452;9.216;2023-04-16T05:52:02;416.47;;;119.57;;
8407;SDS011;4241;48.452;9.216;2023-04-16T05:54:29;414.80;;;119.07;;
8407;SDS011;4241;48.452;9.216;2023-04-16T05:56:58;416.00;;;120.60;;
8407;SDS011;4241;48.452;9.216;2023-04-16T05:59:25;414.60;;;119.90;;
8407;SDS011;4241;48.452;9.216;2023-04-16T06:01:51;416.50;;;120.37;;
8407;SDS011;4241;48.452;9.216;2023-04-16T06:04:18;414.77;;;119.27;;
8407;SDS011;4241;48.452;9.216;2023-04-16T06:06:45;414.17;;;118.87;;
8407;SDS011;4241;48.452;9.216;2023-04-16T06:09:12;414.43;;;120.07;;
8407;SDS011;4241;48.452;9.216;2023-04-16T06:11:38;417.77;;;120.97;;
8407;SDS011;4241;48.452;9.216;2023-04-16T06:14:07;414.50;;;119.40;;
8407;SDS011;4241;48.452;9.216;2023-04-16T06:16:33;414.17;;;119.47;;
8407;SDS011;4241;48.452;9.216;2023-04-16T06:19:00;415.00;;;119.13;;
8407;SDS011;4241;48.452;9.216;2023-04-16T06:21:27;414.27;;;119.43;;
8407;SDS011;4241;48.452;9.216;2023-04-16T06:23:55;416.10;;;119.20;;
8407;SDS011;4241;48.452;9.216;2023-04-16T06:26:22;418.50;;;122.10;;
8407;SDS011;4241;48.452;9.216;2023-04-16T06:28:49;417.03;;;121.43;;
8407;SDS011;4241;48.452;9.216;2023-04-16T06:31:17;416.53;;;119.77;;
8407;SDS011;4241;48.452;9.216;2023-04-16T06:33:44;414.43;;;118.53;;
8407;SDS011;4241;48.452;9.216;2023-04-16T06:36:11;415.17;;;119.07;;
8407;SDS011;4241;48.452;9.216;2023-04-16T06:38:38;414.47;;;119.00;;
8407;SDS011;4241;48.452;9.216;2023-04-16T06:41:05;414.70;;;119.47;;
8407;SDS011;4241;48.452;9.216;2023-04-16T06:43:31;415.07;;;119.33;;
8407;SDS011;4241;48.452;9.216;2023-04-16T06:45:58;411.77;;;117.13;;
8407;SDS011;4241;48.452;9.216;2023-04-16T06:48:27;415.63;;;120.63;;
8407;SDS011;4241;48.452;9.216;2023-04-16T06:50:54;415.00;;;118.57;;
8407;SDS011;4241;48.452;9.216;2023-04-16T06:53:22;416.20;;;119.73;;
8407;SDS011;4241;48.452;9.216;2023-04-16T06:55:49;416.00;;;119.27;;
8407;SDS011;4241;48.452;9.216;2023-04-16T06:58:16;415.80;;;120.00;;
8407;SDS011;4241;48.452;9.216;2023-04-16T07:00:43;415.67;;;119.33;;
8407;SDS011;4241;48.452;9.216;2023-04-16T07:03:11;415.00;;;119.23;;
8407;SDS011;4241;48.452;9.216;2023-04-16T07:05:39;420.47;;;122.67;;
8407;SDS011;4241;48.452;9.216;2023-04-16T07:08:05;414.63;;;119.37;;
8407;SDS011;4241;48.452;9.216;2023-04-16T07:10:32;414.83;;;118.43;;
8407;SDS011;4241;48.452;9.216;2023-04-16T07:12:59;413.97;;;118.10;;
8407;SDS011;4241;48.452;9.216;2023-04-16T07:15:27;419.07;;;123.63;;
8407;SDS011;4241;48.452;9.216;2023-04-16T07:17:54;412.47;;;118.53;;
8407;SDS011;4241;48.452;9.216;2023-04-16T07:20:21;411.10;;;118.07;;
8407;SDS011;4241;48.452;9.216;2023-04-16T07:22:49;413.43;;;118.77;;
8407;SDS011;4241;48.452;9.216;2023-04-16T07:25:16;413.03;;;118.00;;
8407;SDS011;4241;48.452;9.216;2023-04-16T07:27:43;416.43;;;120.73;;
8407;SDS011;4241;48.452;9.216;2023-04-16T07:30:09;415.73;;;120.63;;
8407;SDS011;4241;48.452;9.216;2023-04-16T07:32:36;415.77;;;119.73;;
8407;SDS011;4241;48.452;9.216;2023-04-16T07:35:03;415.63;;;119.53;;
8407;SDS011;4241;48.452;9.216;2023-04-16T07:37:31;416.43;;;120.00;;
8407;SDS011;4241;48.452;9.216;2023-04-16T07:39:59;414.67;;;119.47;;
8407;SDS011;4241;48.452;9.216;2023-04-16T07:42:26;417.53;;;121.13;;
8407;SDS011;4241;48.452;9.216;2023-04-16T07:44:53;411.43;;;116.53;;
8407;SDS011;4241;48.452;9.216;2023-04-16T07:47:20;416.17;;;120.30;;
8407;SDS011;4241;48.452;9.216;2023-04-16T07:49:50;416.00;;;119.53;;
8407;SDS011;4241;48.452;9.216;2023-04-16T07:52:17;412.60;;;117.17;;
8407;SDS011;4241;48.452;9.216;2023-04-16T07:54:44;417.60;;;120.90;;
8407;SDS011;4241;48.452;9.216;2023-04-16T07:57:12;417.07;;;120.77;;
8407;SDS011;4241;48.452;9.216;2023-04-16T07:59:40;413.20;;;118.10;;
8407;SDS011;4241;48.452;9.216;2023-04-16T08:02:07;413.33;;;118.93;;
8407;SDS011;4241;48.452;9.216;2023-04-16T08:04:38;417.33;;;120.73;;
8407;SDS011;4241;48.452;9.216;2023-04-16T08:07:04;410.93;;;117.20;;
8407;SDS011;4241;48.452;9.216;2023-04-16T08:09:31;415.27;;;118.57;;
8407;SDS011;4241;48.452;9.216;2023-04-16T08:11:58;413.93;;;118.67;;
8407;SDS011;4241;48.452;9.216;2023-04-16T08:14:27;413.77;;;118.37;;
8407;SDS011;4241;48.452;9.216;2023-04-16T08:16:54;413.43;;;118.60;;
8407;SDS011;4241;48.452;9.216;2023-04-16T08:19:21;416.43;;;119.90;;
8407;SDS011;4241;48.452;9.216;2023-04-16T08:21:51;415.13;;;119.73;;
8407;SDS011;4241;48.452;9.216;2023-04-16T08:24:18;413.20;;;117.93;;
8407;SDS011;4241;48.452;9.216;2023-04-16T08:26:45;416.27;;;120.20;;
8407;SDS011;4241;48.452;9.216;2023-04-16T08:29:12;414.83;;;120.50;;
8407;SDS011;4241;48.452;9.216;2023-04-16T08:31:40;417.87;;;121.53;;
8407;SDS011;4241;48.452;9.216;2023-04-16T08:34:07;418.77;;;122.67;;
8407;SDS011;4241;48.452;9.216;2023-04-16T08:36:35;418.37;;;121.80;;
8407;SDS011;4241;48.452;9.216;2023-04-16T08:39:02;416.70;;;120.73;;
8407;SDS011;4241;48.452;9.216;2023-04-16T08:41:29;416.90;;;120.83;;
8407;SDS011;4241;48.452;9.216;2023-04-16T08:43:58;414.40;;;119.93;;
8407;SDS011;4241;48.452;9.216;2023-04-16T08:46:26;416.23;;;122.17;;
8407;SDS011;4241;48.452;9.216;2023-04-16T08:48:58;413.30;;;118.60;;
8407;SDS011;4241;48.452;9.216;2023-04-16T08:51:27;413.10;;;119.93;;
8407;SDS011;4241;48.452;9.216;2023-04-16T08:54:00;415.63;;;120.97;;
8407;SDS011;4241;48.452;9.216;2023-04-16T08:56:29;415.63;;;120.23;;
8407;SDS011;4241;48.452;9.216;2023-04-16T08:59:00;415.37;;;120.63;;
8407;SDS011;4241;48.452;9.216;2023-04-16T09:01:29;416.97;;;120.93;;
8407;SDS011;4241;48.452;9.216;2023-04-16T09:03:59;414.03;;;118.77;;
8407;SDS011;4241;48.452;9.216;2023-04-16T09:06:26;417.37;;;121.13;;
8407;SDS011;4241;48.452;9.216;2023-04-16T09:08:53;416.00;;;121.50;;
8407;SDS011;4241;48.452;9.216;2023-04-16T09:11:22;417.87;;;122.73;;
8407;SDS011;4241;48.452;9.216;2023-04-16T09:13:50;414.97;;;120.53;;
8407;SDS011;4241;48.452;9.216;2023-04-16T09:16:17;414.47;;;119.57;;
8407;SDS011;4241;48.452;9.216;2023-04-16T09:18:46;415.60;;;120.43;;
8407;SDS011;4241;48.452;9.216;2023-04-16T09:21:14;419.27;;;122.53;;
8407;SDS011;4241;48.452;9.216;2023-04-16T09:23:41;428.03;;;130.87;;
8407;SDS011;4241;48.452;9.216;2023-04-16T09:26:08;416.47;;;120.70;;
8407;SDS011;4241;48.452;9.216;2023-04-16T09:28:38;418.47;;;121.10;;
8407;SDS011;4241;48.452;9.216;2023-04-16T09:31:07;416.53;;;119.77;;
8407;SDS011;4241;48.452;9.216;2023-04-16T09:33:38;417.20;;;120.70;;
8407;SDS011;4241;48.452;9.216;2023-04-16T09:36:05;418.20;;;121.60;;
8407;SDS011;4241;48.452;9.216;2023-04-16T09:38:46;421.37;;;123.47;;
8407;SDS011;4241;48.452;9.216;2023-04-16T09:41:13;419.20;;;121.70;;
8407;SDS011;4241;48.452;9.216;2023-04-16T09:43:41;420.00;;;123.50;;
8407;SDS011;4241;48.452;9.216;2023-04-16T09:46:18;419.83;;;122.23;;
8407;SDS011;4241;48.452;9.216;2023-04-16T09:48:45;420.47;;;122.70;;
8407;SDS011;4241;48.452;9.216;2023-04-16T09:51:12;415.63;;;119.03;;
8407;SDS011;4241;48.452;9.216;2023-04-16T09:53:39;419.13;;;121.03;;
8407;SDS011;4241;48.452;9.216;2023-04-16T09:56:07;420.00;;;121.83;;
8407;SDS011;4241;48.452;9.216;2023-04-16T09:58:35;420.70;;;122.17;;
8407;SDS011;4241;48.452;9.216;2023-04-16T10:01:04;424.80;;;124.97;;
8407;SDS011;4241;48.452;9.216;2023-04-16T10:03:34;423.73;;;123.40;;
8407;SDS011;4241;48.452;9.216;2023-04-16T10:06:05;423.60;;;123.57;;
8407;SDS011;4241;48.452;9.216;2023-04-16T10:08:33;423.23;;;123.70;;
8407;SDS011;4241;48.452;9.216;2023-04-16T10:11:01;423.83;;;123.30;;
8407;SDS011;4241;48.452;9.216;2023-04-16T10:13:29;422.37;;;124.63;;
8407;SDS011;4241;48.452;9.216;2023-04-16T10:15:57;422.20;;;123.10;;
8407;SDS011;4241;48.452;9.216;2023-04-16T10:18:24;423.13;;;123.47;;
8407;SDS011;4241;48.452;9.216;2023-04-16T10:20:51;423.27;;;124.17;;
8407;SDS011;4241;48.452;9.216;2023-04-16T10:23:21;424.57;;;125.93;;
8407;SDS011;4241;48.452;9.216;2023-04-16T10:25:48;424.80;;;124.47;;
8407;SDS011;4241;48.452;9.216;2023-04-16T10:28:15;420.67;;;122.23;;
8407;SDS011;4241;48.452;9.216;2023-04-16T10:30:46;421.37;;;122.73;;
8407;SDS011;4241;48.452;9.216;2023-04-16T10:33:18;422.90;;;123.00;;
8407;SDS011;4241;48.452;9.216;2023-04-16T10:35:46;422.13;;;123.07;;
8407;SDS011;4241;48.452;9.216;2023-04-16T10:38:21;425.30;;;124.37;;
8407;SDS011;4241;48.452;9.216;2023-04-16T10:40:49;418.20;;;120.90;;
8407;SDS011;4241;48.452;9.216;2023-04-16T10:43:23;423.87;;;123.47;;
8407;SDS011;4241;48.452;9.216;2023-04-16T10:45:52;419.10;;;121.27;;
8407;SDS011;4241;48.452;9.216;2023-04-16T10:48:19;423.53;;;123.30;;
8407;SDS011;4241;48.452;9.216;2023-04-16T10:50:52;421.23;;;122.10;;
8407;SDS011;4241;48.452;9.216;2023-04-16T10:53:22;422.67;;;123.30;;
8407;SDS011;4241;48.452;9.216;2023-04-16T10:55:56;421.47;;;122.43;;
8407;SDS011;4241;48.452;9.216;2023-04-16T10:58:26;422.87;;;122.90;;
8407;SDS011;4241;48.452;9.216;2023-04-16T11:00:55;423.17;;;123.93;;
8407;SDS011;4241;48.452;9.216;2023-04-16T11:03:24;424.50;;;124.87;;
8407;SDS011;4241;48.452;9.216;2023-04-16T11:05:52;425.63;;;125.27;;
8407;SDS011;4241;48.452;9.216;2023-04-16T11:08:19;424.27;;;124.17;;
8407;SDS011;4241;48.452;9.216;2023-04-16T11:10:46;424.97;;;124.80;;
8407;SDS011;4241;48.452;9.216;2023-04-16T11:13:13;424.90;;;124.07;;
8407;SDS011;4241;48.452;9.216;2023-04-16T11:15:41;427.03;;;126.27;;
8407;SDS011;4241;48.452;9.216;2023-04-16T11:18:10;423.87;;;124.17;;
8407;SDS011;4241;48.452;9.216;2023-04-16T11:20:40;423.53;;;124.10;;
8407;SDS011;4241;48.452;9.216;2023-04-16T11:23:09;421.83;;;122.30;;
8407;SDS011;4241;48.452;9.216;2023-04-16T11:25:37;427.93;;;127.63;;
8407;SDS011;4241;48.452;9.216;2023-04-16T11:28:04;423.27;;;123.60;;
8407;SDS011;4241;48.452;9.216;2023-04-16T11:30:32;423.13;;;123.90;;
8407;SDS011;4241;48.452;9.216;2023-04-16T11:33:00;422.53;;;122.77;;
8407;SDS011;4241;48.452;9.216;2023-04-16T11:35:29;429.77;;;130.13;;
8407;SDS011;4241;48.452;9.216;2023-04-16T11:37:56;425.70;;;125.40;;
8407;SDS011;4241;48.452;9.216;2023-04-16T11:40:23;423.67;;;123.97;;
8407;SDS011;4241;48.452;9.216;2023-04-16T11:42:54;422.90;;;123.43;;
8407;SDS011;4241;48.452;9.216;2023-04-16T11:45:21;426.13;;;127.07;;
8407;SDS011;4241;48.452;9.216;2023-04-16T11:47:48;424.07;;;125.03;;
8407;SDS011;4241;48.452;9.216;2023-04-16T11:50:17;422.50;;;122.50;;
8407;SDS011;4241;48.452;9.216;2023-04-16T11:52:46;425.43;;;124.60;;
8407;SDS011;4241;48.452;9.216;2023-04-16T11:55:14;423.27;;;123.83;;
8407;SDS011;4241;48.452;9.216;2023-04-16T11:57:40;421.67;;;122.70;;
8407;SDS011;4241;48.452;9.216;2023-04-16T12:00:08;422.53;;;123.87;;
8407;SDS011;4241;48.452;9.216;2023-04-16T12:02:38;423.90;;;123.70;;
8407;SDS011;4241;48.452;9.216;2023-04-16T12:05:24;422.47;;;124.20;;
8407;SDS011;4241;48.452;9.216;2023-04-16T12:07:53;417.77;;;120.27;;
8407;SDS011;4241;48.452;9.216;2023-04-16T12:10:21;419.80;;;122.63;;
8407;SDS011;4241;48.452;9.216;2023-04-16T12:12:47;421.83;;;123.53;;
8407;SDS011;4241;48.452;9.216;2023-04-16T12:15:14;424.43;;;124.40;;
8407;SDS011;4241;48.452;9.216;2023-04-16T12:17:41;423.67;;;123.27;;
8407;SDS011;4241;48.452;9.216;2023-04-16T12:20:08;423.50;;;123.80;;
8407;SDS011;4241;48.452;9.216;2023-04-16T12:22:38;422.77;;;122.60;;
8407;SDS011;4241;48.452;9.216;2023-04-16T12:25:09;423.17;;;124.30;;
8407;SDS011;4241;48.452;9.216;2023-04-16T12:27:43;424.33;;;125.37;;
8407;SDS011;4241;48.452;9.216;2023-04-16T12:30:11;424.47;;;124.47;;
8407;SDS011;4241;48.452;9.216;2023-04-16T12:32:39;424.97;;;124.03;;
8407;SDS011;4241;48.452;9.216;2023-04-16T12:35:07;425.80;;;124.97;;
8407;SDS011;4241;48.452;9.216;2023-04-16T12:37:34;424.63;;;124.20;;
8407;SDS011;4241;48.452;9.216;2023-04-16T12:40:01;426.37;;;126.00;;
8407;SDS011;4241;48.452;9.216;2023-04-16T12:42:31;426.37;;;124.80;;
8407;SDS011;4241;48.452;9.216;2023-04-16T12:45:00;426.10;;;125.47;;
8407;SDS011;4241;48.452;9.216;2023-04-16T12:47:27;426.07;;;125.63;;
8407;SDS011;4241;48.452;9.216;2023-04-16T12:49:55;422.97;;;122.93;;
8407;SDS011;4241;48.452;9.216;2023-04-16T12:52:22;426.10;;;125.80;;
8407;SDS011;4241;48.452;9.216;2023-04-16T12:54:49;426.77;;;126.10;;
8407;SDS011;4241;48.452;9.216;2023-04-16T12:57:16;425.93;;;125.53;;
8407;SDS011;4241;48.452;9.216;2023-04-16T12:59:44;423.57;;;123.80;;
8407;SDS011;4241;48.452;9.216;2023-04-16T13:02:11;425.60;;;124.70;;
8407;SDS011;4241;48.452;9.216;2023-04-16T13:04:38;427.23;;;125.80;;
8407;SDS011;4241;48.452;9.216;2023-04-16T13:07:05;426.50;;;126.17;;
8407;SDS011;4241;48.452;9.216;2023-04-16T13:09:32;427.10;;;126.27;;
8407;SDS011;4241;48.452;9.216;2023-04-16T13:11:58;426.23;;;125.27;;
8407;SDS011;4241;48.452;9.216;2023-04-16T13:14:25;427.07;;;125.80;;
8407;SDS011;4241;48.452;9.216;2023-04-16T13:16:54;426.47;;;125.33;;
8407;SDS011;4241;48.452;9.216;2023-04-16T13:19:20;426.67;;;125.27;;
8407;SDS011;4241;48.452;9.216;2023-04-16T13:21:47;427.67;;;125.73;;
8407;SDS011;4241;48.452;9.216;2023-04-16T13:24:14;424.50;;;124.83;;
8407;SDS011;4241;48.452;9.216;2023-04-16T13:26:41;427.70;;;126.27;;
8407;SDS011;4241;48.452;9.216;2023-04-16T13:29:08;427.87;;;126.20;;
8407;SDS011;4241;48.452;9.216;2023-04-16T13:31:35;427.80;;;126.40;;
8407;SDS011;4241;48.452;9.216;2023-04-16T13:34:04;427.63;;;124.63;;
8407;SDS011;4241;48.452;9.216;2023-04-16T13:36:30;426.40;;;124.90;;
8407;SDS011;4241;48.452;9.216;2023-04-16T13:38:58;428.13;;;126.53;;
8407;SDS011;4241;48.452;9.216;2023-04-16T13:41:25;424.37;;;124.70;;
8407;SDS011;4241;48.452;9.216;2023-04-16T13:43:52;427.07;;;125.97;;
8407;SDS011;4241;48.452;9.216;2023-04-16T13:46:19;428.13;;;127.10;;
8407;SDS011;4241;48.452;9.216;2023-04-16T13:48:46;427.47;;;126.57;;
8407;SDS011;4241;48.452;9.216;2023-04-16T13:51:14;429.17;;;126.67;;
8407;SDS011;4241;48.452;9.216;2023-04-16T13:53:41;426.17;;;125.13;;
8407;SDS011;4241;48.452;9.216;2023-04-16T13:56:08;427.47;;;126.63;;
8407;SDS011;4241;48.452;9.216;2023-04-16T13:58:36;425.83;;;124.90;;
8407;SDS011;4241;48.452;9.216;2023-04-16T14:01:02;426.07;;;126.20;;
8407;SDS011;4241;48.452;9.216;2023-04-16T14:03:29;427.50;;;126.90;;
8407;SDS011;4241;48.452;9.216;2023-04-16T14:05:59;425.90;;;125.30;;
8407;SDS011;4241;48.452;9.216;2023-04-16T14:08:27;426.57;;;125.57;;
8407;SDS011;4241;48.452;9.216;2023-04-16T14:10:55;428.63;;;126.60;;
8407;SDS011;4241;48.452;9.216;2023-04-16T14:13:22;426.53;;;125.63;;
8407;SDS011;4241;48.452;9.216;2023-04-16T14:15:49;421.80;;;122.37;;
8407;SDS011;4241;48.452;9.216;2023-04-16T14:18:16;424.30;;;124.47;;
8407;SDS011;4241;48.452;9.216;2023-04-16T14:20:43;425.13;;;124.00;;
8407;SDS011;4241;48.452;9.216;2023-04-16T14:23:10;426.40;;;125.53;;